sensor_id;sensor_type;location;lat;lon;timestamp;pressure;altitude;pressure_sealevel;temperature;humidity
49216;BME280;45943;53.148;8.204;2022-11-02T00:01:24;101433.25;;;16.07;100.00
49216;BME280;45943;53.148;8.204;2022-11-02T00:03:53;101429.16;;;16.03;100.00
49216;BME280;45943;53.148;8.204;2022-11-02T00:06:19;101425.00;;;16.09;100.00
49216;BME280;45943;53.148;8.204;2022-11-02T00:08:45;101409.06;;;16.05;100.00
49216;BME280;45943;53.148;8.204;2022-11-02T00:11:11;101406.91;;;16.09;100.00
49216;BME280;45943;53.148;8.204;2022-11-02T00:13:37;101399.94;;;16.06;100.00
49216;BME280;45943;53.148;8.204;2022-11-02T00:16:03;101402.94;;;16.13;100.00
49216;BME280;45943;53.148;8.204;2022-11-02T00:18:32;101399.63;;;16.10;100.00
49216;BME280;45943;53.148;8.204;2022-11-02T00:21:00;101402.66;;;16.06;100.00
49216;BME280;45943;53.148;8.204;2022-11-02T00:23:27;101397.50;;;16.13;100.00
49216;BME280;45943;53.148;8.204;2022-11-02T00:25:54;101393.22;;;16.11;100.00
49216;BME280;45943;53.148;8.204;2022-11-02T00:28:22;101394.06;;;16.11;100.00
49216;BME280;45943;53.148;8.204;2022-11-02T00:30:48;101397.22;;;16.16;100.00
49216;BME280;45943;53.148;8.204;2022-11-02T00:33:14;101396.94;;;16.10;100.00
49216;BME280;45943;53.148;8.204;2022-11-02T00:35:40;101401.06;;;16.14;100.00
49216;BME280;45943;53.148;8.204;2022-11-02T00:38:06;101394.34;;;16.18;100.00
49216;BME280;45943;53.148;8.204;2022-11-02T00:40:32;101388.78;;;16.19;100.00
49216;BME280;45943;53.148;8.204;2022-11-02T00:42:58;101390.81;;;16.08;100.00
49216;BME280;45943;53.148;8.204;2022-11-02T00:45:24;101383.38;;;16.19;100.00
49216;BME280;45943;53.148;8.204;2022-11-02T00:47:50;101369.00;;;16.09;100.00
49216;BME280;45943;53.148;8.204;2022-11-02T00:50:16;101385.81;;;16.22;100.00
49216;BME280;45943;53.148;8.204;2022-11-02T00:52:42;101397.06;;;16.18;100.00
49216;BME280;45943;53.148;8.204;2022-11-02T00:55:08;101382.25;;;16.12;100.00
49216;BME280;45943;53.148;8.204;2022-11-02T00:57:36;101383.09;;;16.22;100.00
49216;BME280;45943;53.148;8.204;2022-11-02T01:00:04;101389.91;;;16.26;100.00
49216;BME280;45943;53.148;8.204;2022-11-02T01:02:32;101377.84;;;16.11;100.00
49216;BME280;45943;53.148;8.204;2022-11-02T01:04:59;101371.31;;;16.14;100.00
49216;BME280;45943;53.148;8.204;2022-11-02T01:07:26;101371.56;;;16.11;100.00
49216;BME280;45943;53.148;8.204;2022-11-02T01:09:52;101374.03;;;16.04;100.00
49216;BME280;45943;53.148;8.204;2022-11-02T01:12:19;101372.91;;;15.87;100.00
49216;BME280;45943;53.148;8.204;2022-11-02T01:14:45;101375.31;;;15.90;100.00
49216;BME280;45943;53.148;8.204;2022-11-02T01:17:12;101370.75;;;16.00;100.00
49216;BME280;45943;53.148;8.204;2022-11-02T01:19:38;101365.66;;;15.88;100.00
49216;BME280;45943;53.148;8.204;2022-11-02T01:22:04;101368.50;;;15.86;100.00
49216;BME280;45943;53.148;8.204;2022-11-02T01:24:30;101365.63;;;15.97;100.00
49216;BME280;45943;53.148;8.204;2022-11-02T01:26:57;101375.59;;;15.58;100.00
49216;BME280;45943;53.148;8.204;2022-11-02T01:29:23;101363.38;;;15.93;100.00
49216;BME280;45943;53.148;8.204;2022-11-02T01:31:49;101349.44;;;15.78;100.00
49216;BME280;45943;53.148;8.204;2022-11-02T01:34:16;101359.09;;;15.90;100.00
49216;BME280;45943;53.148;8.204;2022-11-02T01:36:43;101348.25;;;15.90;100.00
49216;BME280;45943;53.148;8.204;2022-11-02T01:39:10;101333.88;;;15.90;100.00
49216;BME280;45943;53.148;8.204;2022-11-02T01:41:36;101330.19;;;15.91;100.00
49216;BME280;45943;53.148;8.204;2022-11-02T01:44:02;101334.47;;;15.93;100.00
49216;BME280;45943;53.148;8.204;2022-11-02T01:46:42;101336.59;;;15.90;100.00
49216;BME280;45943;53.148;8.204;2022-11-02T01:49:11;101336.59;;;15.80;100.00
49216;BME280;45943;53.148;8.204;2022-11-02T01:51:44;101326.38;;;15.84;100.00
49216;BME280;45943;53.148;8.204;2022-11-02T01:54:15;101322.41;;;15.68;100.00
49216;BME280;45943;53.148;8.204;2022-11-02T01:56:46;101320.84;;;15.75;100.00
49216;BME280;45943;53.148;8.204;2022-11-02T01:59:18;101321.25;;;15.71;100.00
49216;BME280;45943;53.148;8.204;2022-11-02T02:01:49;101334.38;;;15.66;100.00
49216;BME280;45943;53.148;8.204;2022-11-02T02:04:15;101315.59;;;15.64;100.00
49216;BME280;45943;53.148;8.204;2022-11-02T02:06:41;101320.84;;;15.75;100.00
49216;BME280;45943;53.148;8.204;2022-11-02T02:09:08;101316.13;;;15.68;100.00
49216;BME280;45943;53.148;8.204;2022-11-02T02:11:36;101308.56;;;15.71;100.00
49216;BME280;45943;53.148;8.204;2022-11-02T02:14:07;101309.31;;;15.73;100.00
49216;BME280;45943;53.148;8.204;2022-11-02T02:19:09;101304.44;;;15.58;100.00
49216;BME280;45943;53.148;8.204;2022-11-02T02:22:02;101301.03;;;15.75;100.00
49216;BME280;45943;53.148;8.204;2022-11-02T02:30:19;101303.13;;;15.91;100.00
49216;BME280;45943;53.148;8.204;2022-11-02T02:32:49;101299.38;;;16.01;100.00
49216;BME280;45943;53.148;8.204;2022-11-02T02:35:26;101293.91;;;15.84;100.00
49216;BME280;45943;53.148;8.204;2022-11-02T02:38:09;101294.84;;;15.92;100.00
49216;BME280;45943;53.148;8.204;2022-11-02T02:40:49;101300.19;;;15.74;100.00
49216;BME280;45943;53.148;8.204;2022-11-02T02:43:20;101310.22;;;15.92;100.00
49216;BME280;45943;53.148;8.204;2022-11-02T02:46:00;101295.59;;;15.94;100.00
49216;BME280;45943;53.148;8.204;2022-11-02T02:48:33;101311.00;;;15.84;100.00
49216;BME280;45943;53.148;8.204;2022-11-02T02:51:06;101296.84;;;15.90;100.00
49216;BME280;45943;53.148;8.204;2022-11-02T02:53:38;101296.47;;;15.85;100.00
49216;BME280;45943;53.148;8.204;2022-11-02T02:56:09;101299.19;;;15.75;100.00
49216;BME280;45943;53.148;8.204;2022-11-02T02:58:47;101297.31;;;15.86;100.00
49216;BME280;45943;53.148;8.204;2022-11-02T03:01:20;101297.50;;;16.12;100.00
49216;BME280;45943;53.148;8.204;2022-11-02T03:03:47;101296.66;;;16.01;100.00
49216;BME280;45943;53.148;8.204;2022-11-02T03:09:05;101309.19;;;15.65;100.00
49216;BME280;45943;53.148;8.204;2022-11-02T03:11:51;101305.88;;;15.52;100.00
49216;BME280;45943;53.148;8.204;2022-11-02T03:14:45;101294.66;;;15.66;100.00
49216;BME280;45943;53.148;8.204;2022-11-02T03:17:26;101286.44;;;16.05;100.00
49216;BME280;45943;53.148;8.204;2022-11-02T03:25:39;101286.13;;;16.08;100.00
49216;BME280;45943;53.148;8.204;2022-11-02T03:36:58;101295.09;;;16.09;100.00
49216;BME280;45943;53.148;8.204;2022-11-02T03:39:36;101299.25;;;16.03;100.00
49216;BME280;45943;53.148;8.204;2022-11-02T03:42:05;101302.94;;;16.02;100.00
49216;BME280;45943;53.148;8.204;2022-11-02T03:44:38;101301.66;;;16.06;100.00
49216;BME280;45943;53.148;8.204;2022-11-02T03:47:07;101305.41;;;15.95;100.00
49216;BME280;45943;53.148;8.204;2022-11-02T03:49:38;101314.50;;;16.04;100.00
49216;BME280;45943;53.148;8.204;2022-11-02T03:52:07;101310.66;;;15.97;100.00
49216;BME280;45943;53.148;8.204;2022-11-02T03:54:49;101318.31;;;16.01;100.00
49216;BME280;45943;53.148;8.204;2022-11-02T03:57:22;101325.22;;;15.86;100.00
49216;BME280;45943;53.148;8.204;2022-11-02T04:00:04;101333.06;;;15.50;100.00
49216;BME280;45943;53.148;8.204;2022-11-02T04:02:31;101326.09;;;15.77;100.00
49216;BME280;45943;53.148;8.204;2022-11-02T04:05:01;101338.47;;;15.41;100.00
49216;BME280;45943;53.148;8.204;2022-11-02T04:07:27;101332.84;;;16.00;100.00
49216;BME280;45943;53.148;8.204;2022-11-02T04:10:18;101339.13;;;16.01;100.00
49216;BME280;45943;53.148;8.204;2022-11-02T04:12:44;101334.63;;;15.63;100.00
49216;BME280;45943;53.148;8.204;2022-11-02T04:15:39;101333.91;;;15.80;100.00
49216;BME280;45943;53.148;8.204;2022-11-02T04:18:05;101341.31;;;15.78;100.00
49216;BME280;45943;53.148;8.204;2022-11-02T04:20:49;101338.47;;;15.70;100.00
49216;BME280;45943;53.148;8.204;2022-11-02T04:23:16;101332.50;;;15.76;100.00
49216;BME280;45943;53.148;8.204;2022-11-02T04:26:02;101327.66;;;15.50;100.00
49216;BME280;45943;53.148;8.204;2022-11-02T04:28:29;101331.50;;;15.38;100.00
49216;BME280;45943;53.148;8.204;2022-11-02T04:30:57;101339.59;;;15.09;100.00
49216;BME280;45943;53.148;8.204;2022-11-02T04:33:24;101344.84;;;15.01;100.00
49216;BME280;45943;53.148;8.204;2022-11-02T04:36:00;101350.38;;;15.00;100.00
49216;BME280;45943;53.148;8.204;2022-11-02T04:38:31;101340.00;;;14.85;100.00
49216;BME280;45943;53.148;8.204;2022-11-02T04:41:16;101346.38;;;14.84;100.00
49216;BME280;45943;53.148;8.204;2022-11-02T04:44:02;101349.44;;;14.60;100.00
49216;BME280;45943;53.148;8.204;2022-11-02T04:46:30;101341.50;;;14.69;100.00
49216;BME280;45943;53.148;8.204;2022-11-02T04:48:57;101349.13;;;14.54;100.00
49216;BME280;45943;53.148;8.204;2022-11-02T04:51:24;101354.56;;;14.63;100.00
49216;BME280;45943;53.148;8.204;2022-11-02T04:53:53;101353.13;;;14.59;100.00
49216;BME280;45943;53.148;8.204;2022-11-02T04:56:20;101348.41;;;14.52;100.00
49216;BME280;45943;53.148;8.204;2022-11-02T04:58:47;101348.72;;;14.58;100.00
49216;BME280;45943;53.148;8.204;2022-11-02T05:01:20;101357.91;;;14.25;100.00
49216;BME280;45943;53.148;8.204;2022-11-02T05:03:48;101354.41;;;14.55;100.00
49216;BME280;45943;53.148;8.204;2022-11-02T05:06:16;101367.47;;;14.29;100.00
49216;BME280;45943;53.148;8.204;2022-11-02T05:08:43;101364.19;;;14.26;100.00
49216;BME280;45943;53.148;8.204;2022-11-02T05:11:10;101369.47;;;14.27;100.00
49216;BME280;45943;53.148;8.204;2022-11-02T05:13:37;101362.84;;;14.41;100.00
49216;BME280;45943;53.148;8.204;2022-11-02T05:16:04;101380.44;;;14.35;100.00
49216;BME280;45943;53.148;8.204;2022-11-02T05:18:32;101372.44;;;14.34;100.00
49216;BME280;45943;53.148;8.204;2022-11-02T05:20:59;101377.19;;;14.42;100.00
49216;BME280;45943;53.148;8.204;2022-11-02T05:23:27;101380.88;;;14.41;100.00
49216;BME280;45943;53.148;8.204;2022-11-02T05:28:23;101382.81;;;14.29;100.00
49216;BME280;45943;53.148;8.204;2022-11-02T05:30:50;101397.34;;;14.38;100.00
49216;BME280;45943;53.148;8.204;2022-11-02T05:33:17;101398.34;;;14.16;100.00
49216;BME280;45943;53.148;8.204;2022-11-02T05:35:44;101390.28;;;14.25;100.00
49216;BME280;45943;53.148;8.204;2022-11-02T05:38:10;101392.19;;;14.34;100.00
49216;BME280;45943;53.148;8.204;2022-11-02T05:40:37;101379.69;;;14.33;100.00
49216;BME280;45943;53.148;8.204;2022-11-02T05:43:06;101385.28;;;14.42;100.00
49216;BME280;45943;53.148;8.204;2022-11-02T05:45:34;101400.66;;;14.20;100.00
49216;BME280;45943;53.148;8.204;2022-11-02T05:48:01;101394.97;;;14.23;100.00
49216;BME280;45943;53.148;8.204;2022-11-02T05:50:31;101390.56;;;14.22;100.00
49216;BME280;45943;53.148;8.204;2022-11-02T05:52:57;101391.47;;;14.32;100.00
49216;BME280;45943;53.148;8.204;2022-11-02T05:55:23;101377.13;;;14.32;100.00
49216;BME280;45943;53.148;8.204;2022-11-02T05:57:50;101391.25;;;14.15;100.00
49216;BME280;45943;53.148;8.204;2022-11-02T06:00:20;101383.94;;;14.26;100.00
49216;BME280;45943;53.148;8.204;2022-11-02T06:02:47;101388.59;;;14.24;100.00
49216;BME280;45943;53.148;8.204;2022-11-02T06:05:19;101390.50;;;14.33;100.00
49216;BME280;45943;53.148;8.204;2022-11-02T06:07:45;101386.69;;;14.36;100.00
49216;BME280;45943;53.148;8.204;2022-11-02T06:10:11;101400.59;;;13.90;100.00
49216;BME280;45943;53.148;8.204;2022-11-02T06:12:37;101394.66;;;13.96;100.00
49216;BME280;45943;53.148;8.204;2022-11-02T06:15:03;101397.31;;;14.07;100.00
49216;BME280;45943;53.148;8.204;2022-11-02T06:17:39;101397.44;;;14.26;100.00
49216;BME280;45943;53.148;8.204;2022-11-02T06:20:05;101395.91;;;14.13;100.00
49216;BME280;45943;53.148;8.204;2022-11-02T06:22:39;101403.59;;;14.38;100.00
49216;BME280;45943;53.148;8.204;2022-11-02T06:25:06;101399.19;;;14.37;100.00
49216;BME280;45943;53.148;8.204;2022-11-02T06:27:33;101405.00;;;14.12;100.00
49216;BME280;45943;53.148;8.204;2022-11-02T06:29:59;101399.28;;;14.26;100.00
49216;BME280;45943;53.148;8.204;2022-11-02T06:32:25;101392.03;;;14.47;100.00
49216;BME280;45943;53.148;8.204;2022-11-02T06:34:51;101391.97;;;13.96;100.00
49216;BME280;45943;53.148;8.204;2022-11-02T06:37:17;101408.22;;;14.26;100.00
49216;BME280;45943;53.148;8.204;2022-11-02T06:39:43;101401.50;;;14.21;100.00
49216;BME280;45943;53.148;8.204;2022-11-02T06:42:10;101402.59;;;14.39;100.00
49216;BME280;45943;53.148;8.204;2022-11-02T06:44:36;101400.56;;;14.31;100.00
49216;BME280;45943;53.148;8.204;2022-11-02T06:47:02;101392.16;;;14.04;100.00
49216;BME280;45943;53.148;8.204;2022-11-02T06:49:29;101418.28;;;14.24;100.00
49216;BME280;45943;53.148;8.204;2022-11-02T06:51:57;101405.25;;;14.50;100.00
49216;BME280;45943;53.148;8.204;2022-11-02T06:54:23;101412.88;;;14.45;100.00
49216;BME280;45943;53.148;8.204;2022-11-02T06:56:49;101415.56;;;14.45;100.00
49216;BME280;45943;53.148;8.204;2022-11-02T06:59:15;101429.44;;;14.61;100.00
49216;BME280;45943;53.148;8.204;2022-11-02T07:01:41;101425.66;;;14.74;100.00
49216;BME280;45943;53.148;8.204;2022-11-02T07:04:07;101437.19;;;14.76;100.00
49216;BME280;45943;53.148;8.204;2022-11-02T07:06:33;101433.38;;;14.48;100.00
49216;BME280;45943;53.148;8.204;2022-11-02T07:08:59;101442.66;;;15.55;100.00
49216;BME280;45943;53.148;8.204;2022-11-02T07:11:27;101455.56;;;14.91;100.00
49216;BME280;45943;53.148;8.204;2022-11-02T07:13:54;101446.19;;;14.86;100.00
49216;BME280;45943;53.148;8.204;2022-11-02T07:16:20;101451.91;;;15.02;100.00
49216;BME280;45943;53.148;8.204;2022-11-02T07:18:45;101455.13;;;14.77;100.00
49216;BME280;45943;53.148;8.204;2022-11-02T07:21:11;101462.66;;;14.83;100.00
49216;BME280;45943;53.148;8.204;2022-11-02T07:23:37;101464.09;;;14.87;100.00
49216;BME280;45943;53.148;8.204;2022-11-02T07:26:03;101457.84;;;14.86;100.00
49216;BME280;45943;53.148;8.204;2022-11-02T07:28:30;101464.16;;;14.97;100.00
49216;BME280;45943;53.148;8.204;2022-11-02T07:30:56;101467.72;;;14.67;100.00
49216;BME280;45943;53.148;8.204;2022-11-02T07:33:22;101483.31;;;14.93;100.00
49216;BME280;45943;53.148;8.204;2022-11-02T07:35:50;101482.25;;;14.54;100.00
49216;BME280;45943;53.148;8.204;2022-11-02T07:38:16;101480.16;;;14.88;100.00
49216;BME280;45943;53.148;8.204;2022-11-02T07:40:42;101480.78;;;14.71;100.00
49216;BME280;45943;53.148;8.204;2022-11-02T07:43:08;101501.03;;;14.77;100.00
49216;BME280;45943;53.148;8.204;2022-11-02T07:45:34;101510.75;;;14.89;100.00
49216;BME280;45943;53.148;8.204;2022-11-02T07:48:00;101500.78;;;14.89;100.00
49216;BME280;45943;53.148;8.204;2022-11-02T07:50:26;101508.38;;;14.96;100.00
49216;BME280;45943;53.148;8.204;2022-11-02T07:52:53;101507.66;;;15.03;100.00
49216;BME280;45943;53.148;8.204;2022-11-02T07:55:22;101517.13;;;14.57;100.00
49216;BME280;45943;53.148;8.204;2022-11-02T08:00:27;101531.22;;;14.91;100.00
49216;BME280;45943;53.148;8.204;2022-11-02T08:02:58;101518.41;;;15.14;100.00
49216;BME280;45943;53.148;8.204;2022-11-02T08:05:25;101533.53;;;15.76;100.00
49216;BME280;45943;53.148;8.204;2022-11-02T08:07:56;101519.47;;;15.52;100.00
49216;BME280;45943;53.148;8.204;2022-11-02T08:10:22;101527.09;;;15.68;100.00
49216;BME280;45943;53.148;8.204;2022-11-02T08:12:49;101521.84;;;15.76;100.00
49216;BME280;45943;53.148;8.204;2022-11-02T08:15:15;101528.41;;;15.43;100.00
49216;BME280;45943;53.148;8.204;2022-11-02T08:17:41;101525.47;;;15.46;100.00
49216;BME280;45943;53.148;8.204;2022-11-02T08:20:07;101526.19;;;15.58;100.00
49216;BME280;45943;53.148;8.204;2022-11-02T08:22:37;101538.63;;;15.70;100.00
49216;BME280;45943;53.148;8.204;2022-11-02T08:25:04;101529.50;;;15.71;100.00
49216;BME280;45943;53.148;8.204;2022-11-02T08:27:30;101531.81;;;15.85;100.00
49216;BME280;45943;53.148;8.204;2022-11-02T08:29:57;101525.97;;;15.70;100.00
49216;BME280;45943;53.148;8.204;2022-11-02T08:32:26;101533.56;;;15.06;100.00
49216;BME280;45943;53.148;8.204;2022-11-02T08:34:55;101541.97;;;15.12;100.00
49216;BME280;45943;53.148;8.204;2022-11-02T08:37:21;101545.91;;;15.39;100.00
49216;BME280;45943;53.148;8.204;2022-11-02T08:39:47;101558.28;;;15.01;100.00
49216;BME280;45943;53.148;8.204;2022-11-02T08:42:13;101579.50;;;15.36;100.00
49216;BME280;45943;53.148;8.204;2022-11-02T08:44:39;101587.06;;;15.12;100.00
49216;BME280;45943;53.148;8.204;2022-11-02T08:47:05;101575.06;;;15.26;100.00
49216;BME280;45943;53.148;8.204;2022-11-02T08:49:31;101577.84;;;14.93;100.00
49216;BME280;45943;53.148;8.204;2022-11-02T08:51:57;101567.09;;;15.24;100.00
49216;BME280;45943;53.148;8.204;2022-11-02T08:54:24;101587.56;;;15.27;100.00
49216;BME280;45943;53.148;8.204;2022-11-02T08:56:50;101601.28;;;15.14;100.00
49216;BME280;45943;53.148;8.204;2022-11-02T08:59:16;101590.09;;;15.18;100.00
49216;BME280;45943;53.148;8.204;2022-11-02T09:01:47;101581.84;;;15.20;100.00
49216;BME280;45943;53.148;8.204;2022-11-02T09:04:13;101600.66;;;15.31;100.00
49216;BME280;45943;53.148;8.204;2022-11-02T09:06:39;101602.31;;;15.23;100.00
49216;BME280;45943;53.148;8.204;2022-11-02T09:09:05;101615.84;;;15.23;100.00
49216;BME280;45943;53.148;8.204;2022-11-02T09:11:34;101614.31;;;15.30;100.00
49216;BME280;45943;53.148;8.204;2022-11-02T09:21:28;101608.34;;;15.26;100.00
49216;BME280;45943;53.148;8.204;2022-11-02T09:23:54;101620.66;;;15.49;100.00
49216;BME280;45943;53.148;8.204;2022-11-02T09:26:20;101622.56;;;15.28;100.00
49216;BME280;45943;53.148;8.204;2022-11-02T09:28:46;101628.44;;;15.43;100.00
49216;BME280;45943;53.148;8.204;2022-11-02T09:31:12;101637.47;;;15.23;100.00
49216;BME280;45943;53.148;8.204;2022-11-02T09:33:38;101622.97;;;15.24;100.00
49216;BME280;45943;53.148;8.204;2022-11-02T09:36:04;101624.69;;;15.25;100.00
49216;BME280;45943;53.148;8.204;2022-11-02T09:38:31;101630.16;;;15.34;100.00
49216;BME280;45943;53.148;8.204;2022-11-02T09:44:36;101649.28;;;15.21;100.00
49216;BME280;45943;53.148;8.204;2022-11-02T09:47:12;101647.38;;;15.43;100.00
49216;BME280;45943;53.148;8.204;2022-11-02T09:49:39;101660.56;;;15.57;100.00
49216;BME280;45943;53.148;8.204;2022-11-02T09:52:12;101657.81;;;15.47;100.00
49216;BME280;45943;53.148;8.204;2022-11-02T09:54:57;101651.94;;;15.63;100.00
49216;BME280;45943;53.148;8.204;2022-11-02T09:57:37;101658.16;;;15.94;100.00
49216;BME280;45943;53.148;8.204;2022-11-02T10:00:13;101671.31;;;15.68;100.00
49216;BME280;45943;53.148;8.204;2022-11-02T10:08:06;101677.88;;;15.45;100.00
49216;BME280;45943;53.148;8.204;2022-11-02T10:13:32;101673.00;;;15.69;100.00
49216;BME280;45943;53.148;8.204;2022-11-02T10:16:06;101717.19;;;15.28;100.00
49216;BME280;45943;53.148;8.204;2022-11-02T10:18:54;101710.28;;;15.14;100.00
49216;BME280;45943;53.148;8.204;2022-11-02T10:21:33;101699.34;;;15.67;100.00
49216;BME280;45943;53.148;8.204;2022-11-02T10:24:13;101718.47;;;15.34;100.00
49216;BME280;45943;53.148;8.204;2022-11-02T10:26:53;101697.84;;;15.33;100.00
49216;BME280;45943;53.148;8.204;2022-11-02T10:32:01;101709.50;;;15.75;100.00
49216;BME280;45943;53.148;8.204;2022-11-02T10:34:28;101716.09;;;15.40;100.00
49216;BME280;45943;53.148;8.204;2022-11-02T10:51:39;101763.38;;;16.28;100.00
49216;BME280;45943;53.148;8.204;2022-11-02T10:54:10;101747.88;;;15.99;100.00
49216;BME280;45943;53.148;8.204;2022-11-02T10:56:39;101757.09;;;16.77;100.00
49216;BME280;45943;53.148;8.204;2022-11-02T10:59:13;101766.44;;;16.54;100.00
49216;BME280;45943;53.148;8.204;2022-11-02T11:01:44;101765.78;;;16.31;100.00
49216;BME280;45943;53.148;8.204;2022-11-02T11:04:25;101775.44;;;16.14;100.00
49216;BME280;45943;53.148;8.204;2022-11-02T11:06:53;101770.50;;;15.89;100.00
49216;BME280;45943;53.148;8.204;2022-11-02T11:09:28;101788.53;;;16.09;100.00
49216;BME280;45943;53.148;8.204;2022-11-02T11:11:59;101782.63;;;15.53;100.00
49216;BME280;45943;53.148;8.204;2022-11-02T11:14:31;101778.22;;;15.52;100.00
49216;BME280;45943;53.148;8.204;2022-11-02T11:17:13;101785.91;;;15.67;100.00
49216;BME280;45943;53.148;8.204;2022-11-02T11:19:51;101790.03;;;15.30;100.00
49216;BME280;45943;53.148;8.204;2022-11-02T11:25:23;101790.22;;;16.10;100.00
49216;BME280;45943;53.148;8.204;2022-11-02T11:27:52;101793.63;;;16.33;100.00
49216;BME280;45943;53.148;8.204;2022-11-02T11:33:00;101815.00;;;16.36;92.03
49216;BME280;45943;53.148;8.204;2022-11-02T11:35:30;101803.63;;;16.12;94.55
49216;BME280;45943;53.148;8.204;2022-11-02T11:38:02;101801.53;;;16.65;91.83
49216;BME280;45943;53.148;8.204;2022-11-02T11:40:56;101834.19;;;16.23;92.06
49216;BME280;45943;53.148;8.204;2022-11-02T11:43:25;101809.84;;;16.73;89.01
49216;BME280;45943;53.148;8.204;2022-11-02T11:45:57;101797.59;;;16.98;85.80
49216;BME280;45943;53.148;8.204;2022-11-02T11:48:39;101819.34;;;16.68;84.21
49216;BME280;45943;53.148;8.204;2022-11-02T11:51:24;101828.69;;;16.04;91.73
49216;BME280;45943;53.148;8.204;2022-11-02T11:54:03;101813.78;;;16.19;91.07
49216;BME280;45943;53.148;8.204;2022-11-02T11:56:49;101836.19;;;15.59;99.20
49216;BME280;45943;53.148;8.204;2022-11-02T11:59:29;101822.03;;;15.87;96.97
49216;BME280;45943;53.148;8.204;2022-11-02T12:02:42;101820.53;;;15.94;95.12
49216;BME280;45943;53.148;8.204;2022-11-02T12:05:14;101813.56;;;16.72;86.97
49216;BME280;45943;53.148;8.204;2022-11-02T12:08:00;101816.41;;;16.80;85.32
49216;BME280;45943;53.148;8.204;2022-11-02T12:10:36;101814.56;;;17.39;80.89
49216;BME280;45943;53.148;8.204;2022-11-02T12:21:57;101829.28;;;17.75;70.18
49216;BME280;45943;53.148;8.204;2022-11-02T12:24:38;101835.72;;;17.35;71.06
49216;BME280;45943;53.148;8.204;2022-11-02T12:30:12;101837.66;;;17.91;68.24
49216;BME280;45943;53.148;8.204;2022-11-02T12:41:11;101861.97;;;17.25;66.46
49216;BME280;45943;53.148;8.204;2022-11-02T12:43:54;101857.25;;;17.37;66.74
49216;BME280;45943;53.148;8.204;2022-11-02T12:46:36;101848.56;;;17.43;68.24
49216;BME280;45943;53.148;8.204;2022-11-02T12:54:43;101849.22;;;18.68;62.39
49216;BME280;45943;53.148;8.204;2022-11-02T12:57:21;101850.13;;;18.86;61.29
49216;BME280;45943;53.148;8.204;2022-11-02T12:59:52;101860.00;;;19.76;59.07
49216;BME280;45943;53.148;8.204;2022-11-02T13:05:26;101859.22;;;18.95;57.96
49216;BME280;45943;53.148;8.204;2022-11-02T13:08:20;101867.28;;;19.67;56.32
49216;BME280;45943;53.148;8.204;2022-11-02T13:10:57;101863.22;;;18.73;58.18
49216;BME280;45943;53.148;8.204;2022-11-02T13:13:49;101863.69;;;17.65;62.26
49216;BME280;45943;53.148;8.204;2022-11-02T13:16:23;101866.25;;;17.86;63.64
49216;BME280;45943;53.148;8.204;2022-11-02T13:19:03;101864.19;;;16.51;69.61
49216;BME280;45943;53.148;8.204;2022-11-02T13:21:39;101862.75;;;16.77;71.76
49216;BME280;45943;53.148;8.204;2022-11-02T13:24:14;101871.00;;;16.35;73.03
49216;BME280;45943;53.148;8.204;2022-11-02T13:26:44;101874.50;;;17.07;71.98
49216;BME280;45943;53.148;8.204;2022-11-02T13:34:52;101872.13;;;17.71;63.05
49216;BME280;45943;53.148;8.204;2022-11-02T13:37:26;101881.22;;;16.93;68.71
49216;BME280;45943;53.148;8.204;2022-11-02T13:40:05;101880.25;;;17.33;66.04
49216;BME280;45943;53.148;8.204;2022-11-02T13:51:35;101893.84;;;17.71;63.27
49216;BME280;45943;53.148;8.204;2022-11-02T13:56:36;101892.13;;;18.27;61.22
49216;BME280;45943;53.148;8.204;2022-11-02T13:59:04;101889.94;;;19.05;57.92
49216;BME280;45943;53.148;8.204;2022-11-02T14:01:37;101896.59;;;18.92;57.72
49216;BME280;45943;53.148;8.204;2022-11-02T14:04:18;101873.84;;;18.56;57.79
49216;BME280;45943;53.148;8.204;2022-11-02T14:21:44;101900.59;;;16.27;71.91
49216;BME280;45943;53.148;8.204;2022-11-02T14:31:49;101876.03;;;18.16;63.48
49216;BME280;45943;53.148;8.204;2022-11-02T14:46:48;101878.53;;;17.99;58.54
49216;BME280;45943;53.148;8.204;2022-11-02T14:49:30;101878.06;;;18.04;58.83
49216;BME280;45943;53.148;8.204;2022-11-02T14:54:24;101884.53;;;17.55;61.04
49216;BME280;45943;53.148;8.204;2022-11-02T14:56:58;101882.91;;;16.94;63.32
49216;BME280;45943;53.148;8.204;2022-11-02T15:09:50;101913.59;;;16.64;68.30
49216;BME280;45943;53.148;8.204;2022-11-02T15:12:47;101915.56;;;16.52;68.78
49216;BME280;45943;53.148;8.204;2022-11-02T15:26:48;101922.72;;;16.32;72.77
49216;BME280;45943;53.148;8.204;2022-11-02T15:29:29;101908.59;;;16.08;73.62
49216;BME280;45943;53.148;8.204;2022-11-02T15:32:00;101906.63;;;16.41;72.50
49216;BME280;45943;53.148;8.204;2022-11-02T15:34:35;101915.22;;;16.46;72.39
49216;BME280;45943;53.148;8.204;2022-11-02T15:37:05;101910.63;;;16.37;74.18
49216;BME280;45943;53.148;8.204;2022-11-02T15:39:32;101919.22;;;16.51;74.54
49216;BME280;45943;53.148;8.204;2022-11-02T15:42:02;101912.00;;;16.52;73.73
49216;BME280;45943;53.148;8.204;2022-11-02T15:47:31;101907.06;;;16.36;74.82
49216;BME280;45943;53.148;8.204;2022-11-02T15:50:19;101910.84;;;16.24;77.19
49216;BME280;45943;53.148;8.204;2022-11-02T15:53:00;101905.25;;;16.16;80.14
49216;BME280;45943;53.148;8.204;2022-11-02T15:55:37;101904.53;;;16.14;80.62
49216;BME280;45943;53.148;8.204;2022-11-02T16:00:51;101904.31;;;16.05;80.60
49216;BME280;45943;53.148;8.204;2022-11-02T16:03:30;101904.41;;;15.94;82.61
49216;BME280;45943;53.148;8.204;2022-11-02T16:05:56;101909.19;;;15.91;82.70